Time;durP1;ratioP1;P1;durP2;ratioP2;P2;SDS_P1;SDS_P2;PMS_P1;PMS_P2;Temp;Humidity;BMP_temperature;BMP_pressure;BME280_temperature;BME280_humidity;BME280_pressure;Samples;Min_cycle;Max_cycle;Signal;HPM_P1;HPM_P2
2021/12/14 00:00:52;;;;;;;8.60;6.30;;;10.30;83.80;;;;;;5065944;28;20029;-82
2021/12/14 00:03:25;;;;;;;7.35;5.30;;;10.20;83.80;;;;;;5063288;28;20079;-82
2021/12/14 00:05:51;;;;;;;5.50;4.70;;;10.20;84.00;;;;;;5067180;28;20094;-81
2021/12/14 00:08:18;;;;;;;8.43;6.03;;;10.20;84.10;;;;;;5065986;28;20035;-82
2021/12/14 00:13:24;;;;;;;5.63;4.50;;;10.30;84.10;;;;;;5062707;28;20066;-82
2021/12/14 00:15:50;;;;;;;5.32;4.35;;;10.30;84.20;;;;;;5067685;28;20047;-82
2021/12/14 00:18:16;;;;;;;6.43;4.72;;;10.40;84.20;;;;;;5065920;28;20032;-82
2021/12/14 00:20:57;;;;;;;6.18;4.80;;;10.40;84.10;;;;;;5061794;28;20025;-81
2021/12/14 00:26:13;;;;;;;5.57;4.75;;;10.40;84.20;;;;;;5066044;28;20123;-82
2021/12/14 00:28:39;;;;;;;6.45;5.22;;;10.40;84.20;;;;;;5065033;28;20387;-81
2021/12/14 00:31:09;;;;;;;6.32;4.88;;;10.40;84.20;;;;;;5065339;28;20044;-82
2021/12/14 00:33:36;;;;;;;6.70;4.95;;;10.40;84.20;;;;;;5061574;28;20031;-82
2021/12/14 00:36:05;;;;;;;6.75;5.40;;;10.40;84.40;;;;;;5066112;28;20040;-82
2021/12/14 00:38:34;;;;;;;6.10;4.70;;;10.40;84.30;;;;;;5063391;28;20585;-82
2021/12/14 00:41:08;;;;;;;8.77;5.10;;;10.40;85.00;;;;;;5065567;28;20023;-80
2021/12/14 00:43:34;;;;;;;7.65;5.97;;;10.50;84.50;;;;;;5062624;28;20115;-82
2021/12/14 00:46:00;;;;;;;6.40;5.20;;;10.50;84.40;;;;;;5060975;28;20513;-81
2021/12/14 00:48:26;;;;;;;6.28;5.20;;;10.50;84.40;;;;;;5060189;28;20029;-81
2021/12/14 00:50:54;;;;;;;8.07;6.03;;;10.40;84.40;;;;;;5063472;28;20459;-81
2021/12/14 00:53:20;;;;;;;7.07;5.60;;;10.50;84.50;;;;;;5067699;28;20383;-81
2021/12/14 00:55:49;;;;;;;6.25;4.80;;;10.50;84.50;;;;;;5068296;28;20020;-83
2021/12/14 00:58:16;;;;;;;6.10;4.60;;;10.50;84.60;;;;;;5064140;28;20017;-82
2021/12/14 01:00:47;;;;;;;5.60;4.43;;;10.50;84.60;;;;;;5065973;28;20016;-82
2021/12/14 01:03:13;;;;;;;5.18;4.30;;;10.60;84.60;;;;;;5061546;28;20052;-83
2021/12/14 01:05:45;;;;;;;6.28;5.18;;;10.60;84.60;;;;;;5064861;28;20047;-82
2021/12/14 01:08:17;;;;;;;7.65;5.93;;;10.60;84.50;;;;;;5067594;28;20106;-82
2021/12/14 01:11:03;;;;;;;6.45;5.13;;;10.60;84.50;;;;;;5062316;28;20082;-83
2021/12/14 01:13:31;;;;;;;5.65;4.57;;;10.50;84.60;;;;;;5068856;28;20032;-81
2021/12/14 01:16:16;;;;;;;6.82;5.57;;;10.50;84.60;;;;;;5062977;28;20024;-82
2021/12/14 01:18:48;;;;;;;7.35;5.70;;;10.50;84.60;;;;;;5069984;28;20108;-82
2021/12/14 01:24:21;;;;;;;6.90;5.05;;;10.50;84.60;;;;;;5063784;28;20028;-83
2021/12/14 01:26:48;;;;;;;9.13;6.65;;;10.50;84.80;;;;;;5069787;28;20111;-83
2021/12/14 01:29:16;;;;;;;7.13;6.03;;;10.40;84.60;;;;;;5070777;28;20031;-83
2021/12/14 01:31:43;;;;;;;8.10;6.18;;;10.40;84.80;;;;;;5068764;28;20031;-83
2021/12/14 01:34:14;;;;;;;9.05;7.28;;;10.40;84.80;;;;;;5067262;28;20028;-82
2021/12/14 01:36:47;;;;;;;7.78;6.63;;;10.30;84.70;;;;;;5069577;28;20024;-82
2021/12/14 01:42:09;;;;;;;8.23;5.97;;;10.30;85.00;;;;;;5068980;28;20036;-82
2021/12/14 01:44:51;;;;;;;8.02;6.32;;;10.20;85.00;;;;;;5069510;28;20467;-82
2021/12/14 01:47:26;;;;;;;9.45;7.38;;;10.20;85.10;;;;;;5064838;28;20461;-81
2021/12/14 01:49:52;;;;;;;9.05;7.07;;;10.20;85.20;;;;;;5068132;28;20083;-82
2021/12/14 01:52:22;;;;;;;12.27;9.40;;;10.10;85.30;;;;;;5062067;28;20067;-83
2021/12/14 01:54:51;;;;;;;8.82;6.47;;;10.00;85.30;;;;;;5060339;28;20021;-81
2021/12/14 01:57:20;;;;;;;8.38;6.95;;;10.10;85.60;;;;;;5064307;28;20025;-81
2021/12/14 01:59:47;;;;;;;9.73;8.13;;;10.10;85.60;;;;;;5067296;28;20032;-81
2021/12/14 02:02:29;;;;;;;8.18;6.28;;;10.00;85.50;;;;;;5071090;28;20116;-81
2021/12/14 02:04:56;;;;;;;7.43;5.93;;;10.10;85.60;;;;;;5070714;28;20837;-81
2021/12/14 02:07:24;;;;;;;8.88;6.68;;;10.20;85.60;;;;;;5067894;28;20379;-81
2021/12/14 02:09:55;;;;;;;8.55;6.70;;;10.20;85.60;;;;;;5066142;28;20042;-81
2021/12/14 02:12:23;;;;;;;6.63;5.93;;;10.30;85.60;;;;;;5066806;28;20526;-81
2021/12/14 02:14:50;;;;;;;10.85;8.15;;;10.20;85.60;;;;;;5069199;28;20024;-81
2021/12/14 02:17:19;;;;;;;7.32;6.30;;;10.20;85.50;;;;;;5070237;28;20415;-81
2021/12/14 02:19:46;;;;;;;9.18;6.90;;;10.20;85.60;;;;;;5067139;28;20029;-80
2021/12/14 02:22:13;;;;;;;8.40;6.97;;;10.20;85.50;;;;;;5065793;28;20040;-81
2021/12/14 02:24:43;;;;;;;9.25;6.95;;;10.20;85.60;;;;;;5067417;28;20032;-81
2021/12/14 02:27:08;;;;;;;11.93;8.85;;;10.20;85.60;;;;;;5066406;28;20039;-81
2021/12/14 02:29:39;;;;;;;9.05;7.22;;;10.20;85.60;;;;;;5069414;28;20029;-81
2021/12/14 02:32:12;;;;;;;11.60;9.35;;;10.20;85.60;;;;;;5070399;28;20020;-81
2021/12/14 02:34:41;;;;;;;8.80;6.63;;;10.10;85.50;;;;;;5064435;28;20052;-80
2021/12/14 02:37:08;;;;;;;8.25;6.70;;;10.10;85.70;;;;;;5068360;28;20099;-80
2021/12/14 02:42:08;;;;;;;8.45;6.30;;;10.20;86.40;;;;;;5066943;28;20027;-80
2021/12/14 02:44:33;;;;;;;9.43;7.38;;;10.20;85.70;;;;;;5069173;28;20052;-81
2021/12/14 02:47:12;;;;;;;8.05;6.60;;;10.20;85.70;;;;;;5069218;28;20479;-82
2021/12/14 02:49:41;;;;;;;8.05;6.50;;;10.20;85.80;;;;;;5066632;28;20107;-82
2021/12/14 02:52:10;;;;;;;9.23;7.28;;;10.30;85.90;;;;;;5069450;28;20360;-81
2021/12/14 02:54:43;;;;;;;8.63;6.18;;;10.30;85.80;;;;;;5068444;28;20043;-81
2021/12/14 02:57:18;;;;;;;6.38;5.10;;;10.30;85.90;;;;;;5062430;28;20082;-81
2021/12/14 02:59:46;;;;;;;9.98;8.55;;;10.30;85.80;;;;;;5067789;28;20479;-81
2021/12/14 03:02:17;;;;;;;10.18;7.65;;;10.30;85.80;;;;;;5061248;28;20035;-81
2021/12/14 03:04:51;;;;;;;9.00;6.90;;;10.20;85.70;;;;;;5067068;28;20530;-81
2021/12/14 03:07:21;;;;;;;10.82;8.43;;;10.30;85.80;;;;;;5068045;28;20309;-82
2021/12/14 03:10:06;;;;;;;13.05;10.00;;;10.30;85.80;;;;;;5067302;28;20051;-80
2021/12/14 03:12:40;;;;;;;9.40;7.35;;;10.20;85.80;;;;;;5064452;28;20139;-80
2021/12/14 03:15:26;;;;;;;11.32;9.10;;;10.20;85.80;;;;;;5063207;28;20032;-82
2021/12/14 03:17:55;;;;;;;9.40;7.20;;;10.20;85.80;;;;;;5063731;28;20467;-80
2021/12/14 03:20:29;;;;;;;9.63;7.07;;;10.20;86.00;;;;;;5067821;28;20032;-80
2021/12/14 03:23:12;;;;;;;11.32;8.95;;;10.20;86.00;;;;;;5060345;28;20091;-81
2021/12/14 03:25:42;;;;;;;7.80;6.32;;;10.20;85.90;;;;;;5060133;28;20036;-82
2021/12/14 03:28:10;;;;;;;7.50;6.18;;;10.20;85.90;;;;;;5068934;28;20318;-82
2021/12/14 03:30:46;;;;;;;10.55;8.43;;;10.30;86.00;;;;;;5068356;28;20035;-81
2021/12/14 03:33:18;;;;;;;11.02;8.45;;;10.30;85.80;;;;;;5067466;28;20055;-82
2021/12/14 03:35:57;;;;;;;8.25;6.72;;;10.30;85.70;;;;;;5065997;28;20395;-82
2021/12/14 03:38:28;;;;;;;10.68;8.45;;;10.20;85.80;;;;;;5065518;28;20116;-82
2021/12/14 03:40:59;;;;;;;8.98;6.00;;;10.20;85.80;;;;;;5068624;28;20032;-82
2021/12/14 03:43:24;;;;;;;10.48;8.45;;;10.20;85.80;;;;;;5067736;28;20048;-82
2021/12/14 03:45:51;;;;;;;9.82;7.70;;;10.20;85.80;;;;;;5064118;28;20075;-82
2021/12/14 03:48:20;;;;;;;10.10;7.72;;;10.20;85.90;;;;;;5062118;28;20083;-82
2021/12/14 03:50:45;;;;;;;10.70;8.30;;;10.30;85.90;;;;;;5067373;28;20050;-82
2021/12/14 03:53:13;;;;;;;10.13;7.15;;;10.30;85.90;;;;;;5068814;28;20064;-82
2021/12/14 03:55:46;;;;;;;8.07;6.20;;;10.20;85.80;;;;;;5067905;28;20067;-82
2021/12/14 03:58:19;;;;;;;7.20;5.78;;;10.30;85.90;;;;;;5062465;28;20029;-81
2021/12/14 04:01:09;;;;;;;8.27;5.95;;;10.30;86.00;;;;;;5067634;28;20029;-83
2021/12/14 04:03:35;;;;;;;9.13;7.03;;;10.20;85.90;;;;;;5063434;28;20115;-82
2021/12/14 04:06:03;;;;;;;10.63;8.52;;;10.20;86.00;;;;;;5065427;28;20040;-81
2021/12/14 04:08:29;;;;;;;9.65;7.75;;;10.20;86.00;;;;;;5063231;28;20032;-82
2021/12/14 04:10:57;;;;;;;13.00;10.52;;;10.30;86.10;;;;;;5068859;28;20021;-80
2021/12/14 04:13:28;;;;;;;12.35;9.40;;;10.20;85.90;;;;;;5067478;28;20055;-82
2021/12/14 04:15:54;;;;;;;10.75;8.10;;;10.10;86.00;;;;;;5067832;28;20028;-81
2021/12/14 04:18:20;;;;;;;12.55;9.05;;;10.10;86.10;;;;;;5065588;28;20060;-82
2021/12/14 04:20:47;;;;;;;12.75;9.45;;;10.20;86.10;;;;;;5063035;28;20056;-82
2021/12/14 04:23:17;;;;;;;9.98;7.63;;;10.10;86.00;;;;;;5066050;28;20402;-82
2021/12/14 04:25:44;;;;;;;8.48;6.72;;;10.10;86.10;;;;;;5065803;28;20031;-81
2021/12/14 04:28:15;;;;;;;11.50;9.10;;;10.10;86.10;;;;;;5066015;28;20388;-82
2021/12/14 04:30:42;;;;;;;9.00;7.03;;;10.20;86.10;;;;;;5065210;28;20640;-82
2021/12/14 04:33:10;;;;;;;8.82;6.82;;;10.20;86.00;;;;;;5068730;28;20032;-83
2021/12/14 04:35:38;;;;;;;9.18;7.10;;;10.20;86.00;;;;;;5068281;28;20156;-83
2021/12/14 04:38:13;;;;;;;9.07;7.35;;;10.30;86.00;;;;;;5070989;28;20145;-82
2021/12/14 04:51:58;;;;;;;9.18;6.90;;;10.30;85.90;;;;;;5069719;28;20056;-81
2021/12/14 04:54:27;;;;;;;14.18;9.80;;;10.30;85.90;;;;;;5069026;28;20025;-81
2021/12/14 04:56:53;;;;;;;10.07;8.18;;;10.30;85.90;;;;;;5066101;28;20029;-83
2021/12/14 04:59:23;;;;;;;9.75;7.53;;;10.20;85.90;;;;;;5067137;28;20023;-83
2021/12/14 05:01:52;;;;;;;9.68;6.85;;;10.10;86.00;;;;;;5072017;28;20505;-82
2021/12/14 05:04:22;;;;;;;8.77;7.03;;;10.10;86.00;;;;;;5072055;28;20083;-81
2021/12/14 05:06:53;;;;;;;10.20;7.50;;;10.10;86.10;;;;;;5070817;28;20040;-81
2021/12/14 05:09:29;;;;;;;9.68;7.63;;;10.10;86.10;;;;;;5068820;28;20031;-84
2021/12/14 05:12:06;;;;;;;11.77;8.80;;;10.10;86.20;;;;;;5064284;28;20506;-83
2021/12/14 05:14:34;;;;;;;9.50;7.25;;;10.10;86.10;;;;;;5067920;28;20035;-84
2021/12/14 05:17:04;;;;;;;10.98;8.18;;;10.00;86.10;;;;;;5070905;28;20158;-83
2021/12/14 05:19:31;;;;;;;9.05;7.05;;;10.10;86.10;;;;;;5070130;28;20024;-81
2021/12/14 05:22:07;;;;;;;9.85;7.78;;;10.10;86.10;;;;;;5069575;28;20020;-81
2021/12/14 05:24:35;;;;;;;10.98;7.40;;;10.00;86.00;;;;;;5067571;28;20172;-82
2021/12/14 05:27:06;;;;;;;9.23;6.93;;;10.10;86.10;;;;;;5069287;28;20115;-81
2021/12/14 05:29:32;;;;;;;10.63;8.18;;;10.10;86.10;;;;;;5069500;28;20078;-80
2021/12/14 05:32:00;;;;;;;9.60;7.60;;;10.20;86.00;;;;;;5068950;28;20048;-80
2021/12/14 05:34:27;;;;;;;9.85;7.53;;;10.10;85.90;;;;;;5067772;28;20379;-80
2021/12/14 05:36:54;;;;;;;9.20;7.25;;;10.10;86.00;;;;;;5068833;28;20052;-81
2021/12/14 05:40:05;;;;;;;9.10;6.72;;;10.00;85.90;;;;;;5069446;28;20031;-80
2021/12/14 05:44:53;;;;;;;12.70;9.38;;;10.10;86.00;;;;;;5066599;28;20090;-80
2021/12/14 05:47:19;;;;;;;10.60;7.07;;;10.10;85.90;;;;;;5064232;28;20500;-81
2021/12/14 05:49:47;;;;;;;7.80;6.38;;;10.00;85.80;;;;;;5065342;28;20024;-83
2021/12/14 05:52:18;;;;;;;8.40;6.50;;;10.00;85.90;;;;;;5075468;28;20044;-84
2021/12/14 05:54:44;;;;;;;8.20;6.35;;;10.00;85.90;;;;;;5064747;28;20074;-82
2021/12/14 05:57:16;;;;;;;8.68;6.47;;;10.10;85.90;;;;;;5070359;28;20021;-82
2021/12/14 05:59:42;;;;;;;9.50;6.80;;;10.00;85.90;;;;;;5069102;28;20072;-81
2021/12/14 06:02:09;;;;;;;7.85;5.75;;;10.00;85.90;;;;;;5060644;28;20025;-81
2021/12/14 06:04:44;;;;;;;7.90;5.97;;;10.00;86.00;;;;;;5064816;28;20031;-81
2021/12/14 06:07:11;;;;;;;7.00;5.07;;;10.00;86.00;;;;;;5067064;28;20029;-82
2021/12/14 06:09:45;;;;;;;7.43;5.57;;;10.00;86.00;;;;;;5067212;28;20104;-82
2021/12/14 06:12:17;;;;;;;8.15;5.53;;;10.10;86.00;;;;;;5067343;28;20024;-82
2021/12/14 06:14:51;;;;;;;7.45;5.55;;;10.10;85.90;;;;;;5062737;28;20052;-83
2021/12/14 06:17:22;;;;;;;7.13;5.22;;;10.20;85.90;;;;;;5068811;28;20098;-82
2021/12/14 06:19:54;;;;;;;7.85;5.95;;;10.20;85.90;;;;;;5070221;28;20028;-83
2021/12/14 06:22:22;;;;;;;8.48;6.05;;;10.20;85.80;;;;;;5063596;28;20115;-82
2021/12/14 06:24:51;;;;;;;7.50;5.25;;;10.20;85.60;;;;;;5068424;28;20418;-82
2021/12/14 06:27:19;;;;;;;7.18;5.22;;;10.20;85.70;;;;;;5063897;28;20079;-81
2021/12/14 06:29:47;;;;;;;7.55;5.80;;;10.20;85.70;;;;;;5069755;28;20029;-81
2021/12/14 06:32:17;;;;;;;7.93;5.40;;;10.20;85.70;;;;;;5068768;28;20103;-82
2021/12/14 06:34:47;;;;;;;8.73;6.15;;;10.20;85.70;;;;;;5069457;28;20028;-82
2021/12/14 06:40:16;;;;;;;7.25;5.45;;;10.30;85.50;;;;;;5070132;28;20032;-82
2021/12/14 06:42:50;;;;;;;9.40;6.05;;;10.20;85.50;;;;;;5064611;28;20029;-82
2021/12/14 06:45:20;;;;;;;8.57;5.95;;;10.30;85.50;;;;;;5061180;28;20055;-82
2021/12/14 06:47:49;;;;;;;9.85;6.55;;;10.20;85.40;;;;;;5063827;28;20036;-83
2021/12/14 06:50:23;;;;;;;8.25;6.35;;;10.20;85.40;;;;;;5066470;28;20103;-82
2021/12/14 06:53:01;;;;;;;8.57;5.88;;;10.10;85.30;;;;;;5067889;28;20044;-81
2021/12/14 06:55:28;;;;;;;7.63;5.70;;;10.10;85.50;;;;;;5063950;28;20021;-82
2021/12/14 06:58:12;;;;;;;10.25;6.43;;;10.20;85.60;;;;;;5064810;28;20025;-82
2021/12/14 07:00:41;;;;;;;8.13;5.72;;;10.20;85.40;;;;;;5065197;28;20483;-84
2021/12/14 07:03:07;;;;;;;10.63;7.18;;;10.30;85.50;;;;;;5060437;28;20021;-81
2021/12/14 07:05:33;;;;;;;9.25;6.95;;;10.20;85.30;;;;;;5068535;28;20032;-78
2021/12/14 07:08:10;;;;;;;10.75;7.47;;;10.20;85.30;;;;;;5068923;28;20036;-83
2021/12/14 07:10:40;;;;;;;10.18;7.35;;;10.20;85.40;;;;;;5063222;28;20024;-81
2021/12/14 07:13:28;;;;;;;10.02;6.55;;;10.10;85.30;;;;;;5060329;28;20031;-81
2021/12/14 07:15:54;;;;;;;9.23;6.25;;;10.10;85.50;;;;;;5066030;28;20375;-79
2021/12/14 07:18:31;;;;;;;9.77;6.97;;;10.10;85.50;;;;;;5061137;28;20021;-80
2021/12/14 07:20:58;;;;;;;10.32;7.10;;;10.10;85.50;;;;;;5061604;28;20073;-80
2021/12/14 07:23:28;;;;;;;10.25;7.53;;;10.10;85.50;;;;;;5064192;28;20032;-80
2021/12/14 07:26:13;;;;;;;10.88;7.88;;;10.00;85.50;;;;;;5060515;28;20383;-80
2021/12/14 07:28:42;;;;;;;10.82;7.45;;;10.00;85.60;;;;;;5061662;28;20112;-79
2021/12/14 07:31:19;;;;;;;11.00;8.10;;;10.00;85.60;;;;;;5065389;28;20062;-79
2021/12/14 07:33:57;;;;;;;11.05;8.30;;;10.00;85.70;;;;;;5064508;28;20032;-79
2021/12/14 07:36:32;;;;;;;8.05;6.05;;;9.90;85.60;;;;;;5067001;28;20098;-80
2021/12/14 07:39:01;;;;;;;9.98;7.43;;;9.90;85.60;;;;;;5063731;28;20036;-82
2021/12/14 07:41:33;;;;;;;9.82;7.25;;;9.90;85.60;;;;;;5063825;28;20068;-81
2021/12/14 07:44:12;;;;;;;11.60;8.50;;;9.90;85.60;;;;;;5063341;28;20024;-81
2021/12/14 07:47:05;;;;;;;9.10;7.00;;;9.90;85.70;;;;;;5064303;28;20032;-88
2021/12/14 07:49:46;;;;;;;9.10;6.20;;;9.90;85.80;;;;;;5058337;28;20048;-80
2021/12/14 07:52:15;;;;;;;10.23;7.47;;;9.90;85.70;;;;;;5054536;28;20398;-85
2021/12/14 07:54:47;;;;;;;14.00;9.02;;;9.90;85.70;;;;;;5061017;28;20115;-82
2021/12/14 07:57:25;;;;;;;14.27;10.18;;;9.90;85.70;;;;;;5062972;28;20108;-82
2021/12/14 07:59:55;;;;;;;15.43;11.55;;;9.90;85.70;;;;;;5059562;28;20034;-81
2021/12/14 08:02:40;;;;;;;12.55;9.40;;;9.80;85.60;;;;;;5059464;28;20029;-83
2021/12/14 08:05:27;;;;;;;13.52;9.50;;;9.70;85.80;;;;;;5059933;28;20024;-83
2021/12/14 08:08:15;;;;;;;13.57;9.60;;;9.70;85.80;;;;;;5061396;28;20064;-83
2021/12/14 08:10:57;;;;;;;12.10;8.75;;;9.70;85.90;;;;;;5065327;28;20487;-81
2021/12/14 08:13:24;;;;;;;14.80;10.43;;;9.80;86.00;;;;;;5066832;28;20028;-81
2021/12/14 08:15:53;;;;;;;16.83;11.77;;;9.80;85.90;;;;;;5067440;28;20505;-79
2021/12/14 08:18:30;;;;;;;10.05;7.90;;;9.70;85.80;;;;;;5066283;28;20012;-81
2021/12/14 08:21:08;;;;;;;10.80;7.72;;;9.70;85.90;;;;;;5063117;28;20075;-81
2021/12/14 08:23:40;;;;;;;15.35;10.25;;;9.70;86.00;;;;;;5064844;28;20021;-80
2021/12/14 08:26:05;;;;;;;15.10;11.07;;;9.70;86.00;;;;;;5066239;28;20029;-80
2021/12/14 08:28:32;;;;;;;15.25;11.27;;;9.70;85.90;;;;;;5066881;28;20032;-80
2021/12/14 08:31:02;;;;;;;18.45;13.35;;;9.70;86.00;;;;;;5066833;28;20039;-82
2021/12/14 08:33:29;;;;;;;13.90;9.68;;;9.70;86.00;;;;;;5065309;28;20025;-82
2021/12/14 08:35:58;;;;;;;13.25;9.25;;;9.60;86.10;;;;;;5066281;28;20113;-82
2021/12/14 08:38:24;;;;;;;15.05;10.65;;;9.70;86.30;;;;;;5068486;28;20375;-84
2021/12/14 08:40:56;;;;;;;11.18;8.20;;;9.70;86.30;;;;;;5060419;28;20033;-81
2021/12/14 08:43:27;;;;;;;;;;;9.70;86.30;;;;;;5067820;28;20112;-81
2021/12/14 08:46:09;;;;;;;14.45;10.35;;;9.70;86.10;;;;;;5067352;28;19915;-82
2021/12/14 08:48:45;;;;;;;10.18;7.55;;;9.70;86.30;;;;;;5064856;28;20037;-82
2021/12/14 08:51:45;;;;;;;12.35;8.90;;;9.70;86.30;;;;;;5066738;28;20521;-84
2021/12/14 08:54:27;;;;;;;14.00;10.05;;;9.70;86.30;;;;;;5066000;28;20129;-87
2021/12/14 08:57:10;;;;;;;14.30;10.07;;;9.80;86.20;;;;;;5067180;28;20103;-79
2021/12/14 08:59:39;;;;;;;15.27;10.20;;;9.80;86.20;;;;;;5064034;28;20098;-81
2021/12/14 09:02:07;;;;;;;16.00;11.45;;;9.80;86.20;;;;;;5065867;28;20702;-82
2021/12/14 09:04:42;;;;;;;14.07;10.07;;;9.80;86.20;;;;;;5067040;28;20099;-84
2021/12/14 09:07:19;;;;;;;14.93;11.32;;;9.90;86.20;;;;;;5066416;28;20066;-80
2021/12/14 09:09:46;;;;;;;16.70;11.38;;;9.80;86.10;;;;;;5067398;28;20094;-82
2021/12/14 09:12:24;;;;;;;15.70;11.10;;;9.80;86.10;;;;;;5070169;28;20495;-82
2021/12/14 09:14:52;;;;;;;16.48;12.00;;;9.90;86.20;;;;;;5067458;28;20592;-80
2021/12/14 09:17:21;;;;;;;16.48;12.10;;;9.90;86.20;;;;;;5067871;28;20194;-81
2021/12/14 09:19:53;;;;;;;12.98;9.13;;;9.90;86.10;;;;;;5067678;28;20047;-86
2021/12/14 09:22:41;;;;;;;16.00;11.20;;;9.90;86.10;;;;;;5066314;28;20352;-87
2021/12/14 09:25:09;;;;;;;21.48;15.05;;;9.90;86.10;;;;;;5062899;28;20024;-81
2021/12/14 09:27:36;;;;;;;16.98;12.30;;;9.90;86.10;;;;;;5069525;28;20478;-84
2021/12/14 09:30:03;;;;;;;16.35;11.52;;;9.90;86.10;;;;;;5065104;28;20107;-82
2021/12/14 09:32:29;;;;;;;17.80;12.70;;;9.90;86.00;;;;;;5067759;28;20465;-83
2021/12/14 09:34:57;;;;;;;17.27;12.07;;;9.90;86.10;;;;;;5064394;28;20025;-77
2021/12/14 09:37:25;;;;;;;14.05;10.82;;;9.90;86.20;;;;;;5064810;28;20756;-77
2021/12/14 09:39:55;;;;;;;19.00;11.57;;;9.90;86.10;;;;;;5068573;28;20025;-84
2021/12/14 09:42:26;;;;;;;13.93;10.15;;;10.00;86.20;;;;;;5067058;28;20028;-81
2021/12/14 09:44:53;;;;;;;14.77;10.43;;;10.00;86.10;;;;;;5063694;28;20069;-82
2021/12/14 09:47:21;;;;;;;13.65;9.80;;;10.00;86.10;;;;;;5067620;28;20033;-83
2021/12/14 09:49:49;;;;;;;15.23;11.02;;;10.00;86.00;;;;;;5064084;28;20048;-81
2021/12/14 09:52:22;;;;;;;17.05;12.60;;;10.00;86.00;;;;;;5066105;28;20029;-81
2021/12/14 09:54:49;;;;;;;15.30;11.23;;;10.00;86.10;;;;;;5057943;28;20024;-81
2021/12/14 09:57:20;;;;;;;19.20;12.93;;;10.00;86.10;;;;;;5066610;28;20025;-81
2021/12/14 09:59:46;;;;;;;17.48;12.25;;;10.00;86.00;;;;;;5057990;28;20074;-77
2021/12/14 10:02:20;;;;;;;16.88;10.90;;;10.10;86.10;;;;;;5066781;28;20527;-81
2021/12/14 10:04:51;;;;;;;26.20;18.65;;;10.10;86.10;;;;;;5065041;28;20457;-82
2021/12/14 10:07:17;;;;;;;16.45;12.18;;;10.10;86.00;;;;;;5065314;28;20102;-83
2021/12/14 10:09:47;;;;;;;18.73;12.85;;;10.00;86.00;;;;;;5068309;28;20024;-79
2021/12/14 10:14:52;;;;;;;18.77;13.57;;;10.10;86.10;;;;;;5065489;28;20032;-82
2021/12/14 10:17:22;;;;;;;19.15;13.52;;;10.00;86.00;;;;;;5066796;28;20112;-83
2021/12/14 10:19:48;;;;;;;18.15;13.15;;;10.00;86.10;;;;;;5068000;28;20024;-85
2021/12/14 10:22:23;;;;;;;21.63;14.63;;;10.10;86.10;;;;;;5067110;28;20021;-87
2021/12/14 10:24:54;;;;;;;20.10;13.88;;;10.10;86.10;;;;;;5061494;28;20028;-83
2021/12/14 10:27:24;;;;;;;15.05;10.93;;;10.10;86.10;;;;;;5068267;28;20064;-84
2021/12/14 10:29:49;;;;;;;17.75;11.75;;;10.10;86.10;;;;;;5064645;28;20040;-86
2021/12/14 10:32:22;;;;;;;20.20;13.93;;;10.10;86.10;;;;;;5067330;28;20674;-79
2021/12/14 10:34:53;;;;;;;18.98;12.73;;;10.10;86.10;;;;;;5066909;28;20033;-80
2021/12/14 10:37:36;;;;;;;16.60;12.00;;;10.10;86.10;;;;;;5068117;28;20111;-82
2021/12/14 10:43:12;;;;;;;21.23;15.02;;;10.20;86.10;;;;;;5066142;28;20077;-81
2021/12/14 10:45:38;;;;;;;22.00;14.50;;;10.10;86.10;;;;;;5063087;28;20032;-80
2021/12/14 10:48:04;;;;;;;23.10;15.70;;;10.20;86.20;;;;;;5067582;28;20426;-80
2021/12/14 10:50:31;;;;;;;23.60;15.48;;;10.20;86.20;;;;;;5067133;28;20598;-79
2021/12/14 10:53:00;;;;;;;25.42;16.65;;;10.20;86.30;;;;;;5066915;28;20107;-81
2021/12/14 10:55:34;;;;;;;29.30;19.73;;;10.20;86.20;;;;;;5065511;28;20041;-81
2021/12/14 10:58:00;;;;;;;23.05;15.40;;;10.20;86.30;;;;;;5061418;28;20027;-84
2021/12/14 11:00:31;;;;;;;23.42;15.70;;;10.20;86.30;;;;;;5066314;28;20461;-82
2021/12/14 11:03:11;;;;;;;26.60;17.75;;;10.20;87.00;;;;;;5061917;28;21940;-81
2021/12/14 11:05:39;;;;;;;24.40;16.52;;;10.20;86.30;;;;;;5065445;28;20050;-79
2021/12/14 11:08:24;;;;;;;21.55;13.68;;;10.20;86.30;;;;;;5063896;28;20024;-82
2021/12/14 11:10:53;;;;;;;24.13;16.38;;;10.30;86.40;;;;;;5065986;28;20066;-83
2021/12/14 11:13:18;;;;;;;28.40;18.98;;;10.30;86.30;;;;;;5058357;28;20020;-81
2021/12/14 11:15:52;;;;;;;31.80;19.15;;;10.30;86.40;;;;;;5061284;28;20025;-81
2021/12/14 11:18:22;;;;;;;30.50;19.85;;;10.20;86.40;;;;;;5063438;28;20632;-85
2021/12/14 11:21:07;;;;;;;28.05;18.02;;;10.30;86.60;;;;;;5066514;28;20078;-85
2021/12/14 11:23:37;;;;;;;32.83;20.33;;;10.30;86.60;;;;;;5059422;28;20029;-83
2021/12/14 11:26:05;;;;;;;24.20;16.10;;;10.30;86.60;;;;;;5060514;28;20111;-82
2021/12/14 11:28:55;;;;;;;26.58;17.13;;;10.30;86.60;;;;;;5065023;28;20126;-81
2021/12/14 11:31:22;;;;;;;27.35;17.13;;;10.30;86.60;;;;;;5065028;28;20043;-83
2021/12/14 11:34:04;;;;;;;24.58;15.05;;;10.30;86.50;;;;;;5067779;28;20036;-84
2021/12/14 11:37:03;;;;;;;22.57;14.67;;;10.40;86.60;;;;;;5064542;28;20074;-82
2021/12/14 11:39:35;;;;;;;28.75;18.55;;;10.40;86.60;;;;;;5064485;28;20428;-82
2021/12/14 11:42:32;;;;;;;22.98;14.60;;;10.40;86.60;;;;;;5062663;28;20024;-85
2021/12/14 11:45:08;;;;;;;23.10;15.18;;;10.40;86.60;;;;;;5061218;28;20124;-83
2021/12/14 11:50:10;;;;;;;24.70;16.02;;;10.50;86.50;;;;;;5058499;28;20036;-80
2021/12/14 11:52:38;;;;;;;24.80;16.45;;;10.50;86.50;;;;;;5062432;28;20700;-79
2021/12/14 11:55:28;;;;;;;26.30;16.30;;;10.50;86.40;;;;;;5065832;28;20025;-83
2021/12/14 11:58:12;;;;;;;23.42;14.55;;;10.60;86.50;;;;;;5062731;28;20032;-81
2021/12/14 12:00:42;;;;;;;23.33;15.48;;;10.60;86.40;;;;;;5063498;28;20020;-81
2021/12/14 12:03:23;;;;;;;28.92;19.13;;;10.60;86.30;;;;;;5064981;28;20060;-81
2021/12/14 12:06:08;;;;;;;29.13;18.58;;;10.60;86.30;;;;;;5063316;28;20086;-82
2021/12/14 12:11:23;;;;;;;28.90;19.20;;;10.60;86.40;;;;;;5063914;28;20075;-80
2021/12/14 12:13:50;;;;;;;25.40;16.73;;;10.60;86.50;;;;;;5061307;28;20070;-84
2021/12/14 12:16:22;;;;;;;22.02;14.65;;;10.60;86.50;;;;;;5066255;28;20064;-82
2021/12/14 12:19:29;;;;;;;33.75;21.15;;;10.60;86.50;;;;;;5067410;28;20690;-83
2021/12/14 12:21:55;;;;;;;24.75;15.68;;;10.60;86.70;;;;;;5057885;28;20075;-84
2021/12/14 12:24:44;;;;;;;24.92;15.82;;;10.60;86.80;;;;;;5063889;28;20064;-82
2021/12/14 12:27:38;;;;;;;31.52;19.55;;;10.60;86.80;;;;;;5064380;28;20033;-82
2021/12/14 12:30:35;;;;;;;25.42;16.88;;;10.60;86.80;;;;;;5058083;28;20099;-80
2021/12/14 12:33:30;;;;;;;27.75;17.60;;;10.60;86.80;;;;;;5068074;28;20481;-82
2021/12/14 12:35:59;;;;;;;25.88;16.70;;;10.60;86.90;;;;;;5057715;28;20072;-81
2021/12/14 12:38:46;;;;;;;33.30;19.60;;;10.60;86.90;;;;;;5066732;28;20029;-80
2021/12/14 12:41:27;;;;;;;30.90;18.95;;;10.60;87.00;;;;;;5065626;28;20060;-82
2021/12/14 12:44:14;;;;;;;33.70;20.63;;;10.60;87.10;;;;;;5065922;28;20491;-84
2021/12/14 12:46:54;;;;;;;32.42;20.83;;;10.50;87.20;;;;;;5057270;28;20123;-86
2021/12/14 12:49:30;;;;;;;32.70;20.30;;;10.50;87.30;;;;;;5066281;28;20033;-86
2021/12/14 12:52:10;;;;;;;27.08;16.80;;;10.50;87.40;;;;;;5061198;28;20475;-80
2021/12/14 12:54:52;;;;;;;33.80;20.48;;;10.50;87.40;;;;;;5063000;28;20070;-84
2021/12/14 12:57:58;;;;;;;26.92;16.00;;;10.50;87.40;;;;;;5061327;28;20101;-83
2021/12/14 13:00:28;;;;;;;29.73;18.15;;;10.50;87.60;;;;;;5059891;28;20102;-80
2021/12/14 13:03:13;;;;;;;27.98;16.83;;;10.50;87.50;;;;;;5067767;28;20028;-84
2021/12/14 13:06:02;;;;;;;27.60;15.98;;;10.50;87.70;;;;;;5070011;28;20028;-84
2021/12/14 13:08:41;;;;;;;23.48;15.55;;;10.60;87.70;;;;;;5070483;28;20510;-87
2021/12/14 13:11:14;;;;;;;34.47;21.83;;;10.60;88.30;;;;;;5062447;28;20039;-89
2021/12/14 13:13:51;;;;;;;29.80;18.85;;;10.60;87.80;;;;;;5067542;28;20024;-86
2021/12/14 13:16:49;;;;;;;32.33;20.10;;;10.60;88.50;;;;;;5067133;28;20044;-89
2021/12/14 13:19:17;;;;;;;32.30;18.70;;;10.60;87.90;;;;;;5066011;28;20028;-87
2021/12/14 13:21:56;;;;;;;27.48;16.58;;;10.60;87.90;;;;;;5061125;28;20038;-86
2021/12/14 13:24:24;;;;;;;28.23;17.45;;;10.60;88.00;;;;;;5069079;28;20033;-83
2021/12/14 13:27:12;;;;;;;32.10;20.42;;;10.60;88.10;;;;;;5066800;28;21536;-80
2021/12/14 13:29:48;;;;;;;30.98;18.95;;;10.60;88.30;;;;;;5067304;28;20040;-83
2021/12/14 13:32:31;;;;;;;25.77;15.50;;;10.60;88.30;;;;;;5065520;28;20060;-83
2021/12/14 13:35:25;;;;;;;22.13;14.13;;;10.60;88.30;;;;;;5065439;28;20029;-92
2021/12/14 13:38:00;;;;;;;26.27;17.33;;;10.60;88.40;;;;;;5061690;28;20028;-83
2021/12/14 13:40:36;;;;;;;26.27;16.38;;;10.60;88.40;;;;;;5064803;28;20017;-80
2021/12/14 13:43:22;;;;;;;24.38;15.23;;;10.60;88.40;;;;;;5063242;28;20036;-81
2021/12/14 13:45:53;;;;;;;26.42;15.60;;;10.60;88.40;;;;;;5063526;28;20027;-82
2021/12/14 13:48:24;;;;;;;23.52;15.70;;;10.60;88.50;;;;;;5073715;28;20090;-79